Time;durP1;ratioP1;P1;durP2;ratioP2;P2;SDS_P1;SDS_P2;PMS_P1;PMS_P2;Temp;Humidity;BMP_temperature;BMP_pressure;BME280_temperature;BME280_humidity;BME280_pressure;Samples;Min_cycle;Max_cycle;Signal;HPM_P1;HPM_P2
2021/04/21 00:02:08;;;;;;;37.42;27.95;;;;;;;9.23;69.13;101472.50;4988105;28;20041;-20
2021/04/21 00:04:34;;;;;;;38.70;27.35;;;;;;;9.14;69.37;101475.22;5005892;28;20022;-19
2021/04/21 00:06:59;;;;;;;39.70;27.25;;;;;;;9.25;69.69;101480.47;4981806;28;20443;-21
2021/04/21 00:09:24;;;;;;;38.53;27.15;;;;;;;9.23;69.47;101477.81;5003416;28;20021;-21
2021/04/21 00:11:50;;;;;;;36.45;26.45;;;;;;;9.17;69.68;101480.50;4998979;28;20029;-20
2021/04/21 00:14:18;;;;;;;36.83;26.45;;;;;;;9.08;69.41;101481.47;4988440;28;20395;-21
2021/04/21 00:16:44;;;;;;;38.70;27.23;;;;;;;9.16;69.84;101478.72;4986144;28;20116;-21
2021/04/21 00:19:10;;;;;;;39.17;26.75;;;;;;;9.06;69.82;101477.94;4991559;28;20480;-21
2021/04/21 00:21:35;;;;;;;37.63;26.27;;;;;;;9.02;69.81;101478.84;4991314;28;20032;-20
2021/04/21 00:24:01;;;;;;;38.05;26.40;;;;;;;8.95;69.94;101483.31;4970935;28;20030;-21
2021/04/21 00:26:26;;;;;;;38.80;26.42;;;;;;;8.94;69.65;101481.53;5007525;28;20092;-19
2021/04/21 00:28:52;;;;;;;37.88;26.48;;;;;;;8.90;69.92;101480.69;4990991;28;20572;-21
2021/04/21 00:31:17;;;;;;;36.20;26.00;;;;;;;8.82;70.07;101485.16;4998436;28;20045;-21
2021/04/21 00:33:43;;;;;;;40.05;26.80;;;;;;;8.84;70.13;101478.09;4990171;28;20396;-19
2021/04/21 00:36:14;;;;;;;37.40;26.73;;;;;;;8.83;70.41;101481.59;4968229;28;20052;-21
2021/04/21 00:38:39;;;;;;;36.42;26.05;;;;;;;8.95;70.07;101473.59;4993336;28;20030;-21
2021/04/21 00:41:27;;;;;;;38.30;26.20;;;;;;;8.89;70.18;101475.38;4992190;28;20025;-20
2021/04/21 00:43:54;;;;;;;37.92;26.15;;;;;;;8.85;70.13;101482.50;4978012;28;20023;-21
2021/04/21 00:46:23;;;;;;;37.10;26.65;;;;;;;8.76;70.24;101479.88;4971146;28;20084;-21
2021/04/21 00:49:10;;;;;;;37.75;27.38;;;;;;;8.70;70.49;101448.97;4990226;28;20033;-21
2021/04/21 00:51:57;;;;;;;35.63;26.40;;;;;;;8.83;70.52;101471.00;4982300;28;20029;-21
2021/04/21 00:54:38;;;;;;;36.42;26.63;;;;;;;8.73;70.65;101471.97;4985314;28;20029;-21
2021/04/21 00:57:22;;;;;;;39.17;26.30;;;;;;;8.71;70.56;101464.00;4998344;28;20182;-21
2021/04/21 00:59:52;;;;;;;35.15;25.20;;;;;;;8.65;70.74;101464.94;4982105;28;20037;-20
2021/04/21 01:02:19;;;;;;;38.10;26.13;;;;;;;8.65;70.74;101469.34;4997873;28;20022;-19
2021/04/21 01:04:44;;;;;;;36.10;25.35;;;;;;;8.57;70.72;101464.06;4987473;28;20070;-21
2021/04/21 01:07:10;;;;;;;38.80;26.58;;;;;;;8.52;70.68;101461.44;4985481;28;20034;-21
2021/04/21 01:09:35;;;;;;;43.33;28.33;;;;;;;8.60;70.77;101464.94;4986032;28;20148;-20
2021/04/21 01:12:05;;;;;;;34.97;25.33;;;;;;;8.50;70.73;101468.50;4987624;28;20021;-17
2021/04/21 01:14:38;;;;;;;37.30;25.48;;;;;;;8.59;70.87;101470.25;4986328;28;20053;-21
2021/04/21 01:17:08;;;;;;;36.17;25.67;;;;;;;8.53;70.87;101457.00;4991577;28;20041;-20
2021/04/21 01:19:58;;;;;;;37.55;26.48;;;;;;;8.50;70.96;101459.66;4981794;28;20581;-21
2021/04/21 01:22:27;;;;;;;38.20;26.45;;;;;;;8.47;70.91;101456.16;4989035;28;20423;-20
2021/04/21 01:25:35;;;;;;;36.35;25.90;;;;;;;8.51;70.85;101456.13;4990588;28;20038;-21
2021/04/21 01:28:06;;;;;;;40.80;27.13;;;;;;;8.47;70.98;101456.16;4979638;28;20097;-21
2021/04/21 01:30:32;;;;;;;37.97;25.95;;;;;;;8.42;70.91;101463.22;4984363;28;20407;-21
2021/04/21 01:33:00;;;;;;;36.70;25.77;;;;;;;8.44;70.86;101458.81;4984134;28;20030;-20
2021/04/21 01:35:25;;;;;;;37.80;26.05;;;;;;;8.41;70.79;101453.53;4987217;28;20026;-20
2021/04/21 01:37:52;;;;;;;39.03;27.58;;;;;;;8.33;71.15;101461.50;4989963;28;20515;-20
2021/04/21 01:40:24;;;;;;;39.60;26.95;;;;;;;8.32;70.88;101440.31;5005363;28;20372;-20
2021/04/21 01:42:52;;;;;;;38.70;27.05;;;;;;;8.36;71.19;101460.63;4966087;28;20036;-21
2021/04/21 01:45:19;;;;;;;40.22;26.45;;;;;;;8.43;71.32;101450.88;4991440;28;20034;-21
2021/04/21 01:47:44;;;;;;;37.55;26.20;;;;;;;8.42;71.21;101455.28;4970549;28;20030;-21
2021/04/21 01:50:13;;;;;;;40.35;26.60;;;;;;;8.39;71.22;101450.00;4988287;28;20539;-20
2021/04/21 01:53:02;;;;;;;37.05;26.33;;;;;;;8.44;71.30;101458.81;4989597;28;20030;-20
2021/04/21 01:55:37;;;;;;;40.80;26.92;;;;;;;8.31;71.44;101459.78;4980635;28;20061;-21
2021/04/21 01:58:28;;;;;;;39.25;27.25;;;;;;;8.36;71.49;101450.91;4984706;28;20053;-20
2021/04/21 02:00:56;;;;;;;42.15;27.60;;;;;;;8.35;71.58;101467.69;4976392;28;20081;-20
2021/04/21 02:03:29;;;;;;;40.60;26.80;;;;;;;8.26;71.59;101464.19;4977569;28;20026;-21
2021/04/21 02:06:08;;;;;;;39.70;27.00;;;;;;;8.32;71.51;101461.53;4979228;28;20080;-19
2021/04/21 02:09:06;;;;;;;38.45;27.42;;;;;;;8.35;71.76;101469.44;4987104;28;20049;-21
2021/04/21 02:11:35;;;;;;;37.05;24.65;;;;;;;8.16;71.64;101460.72;4970959;28;20536;-20
2021/04/21 02:14:19;;;;;;;33.90;24.05;;;;;;;8.12;71.57;101462.50;5002286;28;20018;-21
2021/04/21 02:17:20;;;;;;;34.70;25.30;;;;;;;7.93;71.80;101454.59;4996857;28;20518;-20
2021/04/21 02:19:50;;;;;;;38.67;26.67;;;;;;;8.06;71.83;101463.38;4985360;28;20069;-20
2021/04/21 02:22:36;;;;;;;38.00;25.20;;;;;;;8.10;71.94;101462.50;5003877;28;20467;-21
2021/04/21 02:25:07;;;;;;;38.92;24.83;;;;;;;8.11;71.71;101466.00;4998567;28;20021;-21
2021/04/21 02:27:57;;;;;;;35.95;24.23;;;;;;;8.05;71.73;101460.75;4983045;28;20089;-20
2021/04/21 02:30:33;;;;;;;38.72;26.58;;;;;;;8.06;71.90;101460.75;4979115;28;20436;-21
2021/04/21 02:32:58;;;;;;;35.97;24.63;;;;;;;8.06;71.83;101459.84;5000078;28;20033;-21
2021/04/21 02:35:27;;;;;;;37.77;24.73;;;;;;;7.98;71.94;101459.88;4982464;28;20034;-21
2021/04/21 02:38:16;;;;;;;36.63;25.77;;;;;;;8.03;72.32;101462.50;4973328;28;20284;-21
2021/04/21 02:40:49;;;;;;;39.20;26.42;;;;;;;8.07;72.07;101467.78;4980590;28;20046;-19
2021/04/21 02:43:22;;;;;;;36.47;25.60;;;;;;;8.09;71.97;101460.72;4994282;28;20040;-20
2021/04/21 02:45:50;;;;;;;36.60;26.08;;;;;;;7.96;71.99;101462.53;4990672;28;20481;-21
2021/04/21 02:48:27;;;;;;;38.47;26.52;;;;;;;7.92;72.03;101467.84;5000330;28;20097;-20
2021/04/21 02:51:07;;;;;;;39.55;26.35;;;;;;;7.96;72.09;101465.19;4978839;28;20026;-19
2021/04/21 02:53:41;;;;;;;39.55;26.85;;;;;;;7.97;72.06;101466.06;4997417;28;20499;-21
2021/04/21 02:56:38;;;;;;;39.92;25.30;;;;;;;8.03;72.28;101466.06;4985950;28;20169;-21
2021/04/21 02:59:35;;;;;;;38.65;26.65;;;;;;;7.94;72.25;101456.34;4988512;28;20034;-21
2021/04/21 03:02:47;;;;;;;42.20;28.10;;;;;;;8.02;72.19;101464.28;4978909;28;20085;-22
2021/04/21 03:05:25;;;;;;;40.95;28.63;;;;;;;7.99;72.27;101464.28;4964065;28;20042;-21
2021/04/21 03:08:12;;;;;;;43.15;28.92;;;;;;;7.92;72.33;101458.16;4981293;28;20037;-21
2021/04/21 03:10:55;;;;;;;40.15;27.23;;;;;;;7.90;72.47;101467.84;5003310;28;20303;-21
2021/04/21 03:13:28;;;;;;;41.92;27.83;;;;;;;7.81;72.38;101463.47;5002789;28;20495;-21
2021/04/21 03:15:55;;;;;;;40.33;27.00;;;;;;;7.81;72.47;101463.47;4996679;28;20038;-20
2021/04/21 03:18:21;;;;;;;36.58;24.13;;;;;;;7.74;72.79;101467.88;4985139;28;20104;-20
2021/04/21 03:20:50;;;;;;;39.22;26.38;;;;;;;7.79;72.64;101472.28;4985511;28;20029;-20
2021/04/21 03:23:16;;;;;;;36.95;26.92;;;;;;;7.65;72.52;101444.06;4988992;28;20110;-21
2021/04/21 03:25:41;;;;;;;33.97;25.35;;;;;;;7.69;72.54;101464.38;4996187;28;20040;-21
2021/04/21 03:28:08;;;;;;;38.03;25.92;;;;;;;7.64;72.80;101466.13;4980877;28;20026;-19
2021/04/21 03:30:34;;;;;;;33.38;24.92;;;;;;;7.66;72.76;101466.13;4983590;28;20355;-20
2021/04/21 03:33:20;;;;;;;35.22;25.98;;;;;;;7.69;72.79;101459.06;4965879;28;20261;-21
2021/04/21 03:35:48;;;;;;;36.25;25.98;;;;;;;7.63;72.92;101461.72;4994021;28;20033;-21
2021/04/21 03:38:14;;;;;;;33.65;24.38;;;;;;;7.64;72.77;101463.50;4976837;28;20035;-21
2021/04/21 03:40:39;;;;;;;33.00;24.35;;;;;;;7.68;72.81;101459.97;4987220;28;20038;-19
2021/04/21 03:43:05;;;;;;;35.42;24.15;;;;;;;7.68;72.82;101469.66;4981735;28;20373;-20
2021/04/21 03:45:30;;;;;;;33.17;23.63;;;;;;;7.67;72.67;101466.13;5000672;28;20127;-20
2021/04/21 03:47:56;;;;;;;33.00;23.58;;;;;;;7.79;72.73;101464.34;4987833;28;20031;-20
2021/04/21 03:50:22;;;;;;;33.28;24.30;;;;;;;7.78;72.73;101465.25;4997775;28;20220;-21
2021/04/21 03:52:53;;;;;;;33.28;23.48;;;;;;;7.84;72.81;101467.88;4991505;28;20026;-22
2021/04/21 03:55:18;;;;;;;36.25;25.05;;;;;;;7.82;72.81;101465.22;4993118;28;20519;-21
2021/04/21 03:57:45;;;;;;;33.70;25.02;;;;;;;7.73;72.89;101460.84;4988144;28;20041;-21
2021/04/21 04:00:13;;;;;;;36.20;25.75;;;;;;;7.74;72.99;101465.22;4993688;28;20105;-21
2021/04/21 04:02:39;;;;;;;38.53;25.63;;;;;;;7.79;73.06;101467.88;4987916;28;20415;-21
2021/04/21 04:05:04;;;;;;;39.20;25.60;;;;;;;7.83;72.98;101463.47;4987073;28;20026;-20
2021/04/21 04:07:32;;;;;;;37.08;25.50;;;;;;;7.85;72.69;101467.84;4991985;28;20570;-20
2021/04/21 04:09:58;;;;;;;35.35;25.48;;;;;;;7.83;72.93;101464.31;4990752;28;20023;-20
2021/04/21 04:12:25;;;;;;;34.42;26.05;;;;;;;7.84;72.64;101458.16;4982128;28;20455;-21
2021/04/21 04:14:50;;;;;;;36.72;27.38;;;;;;;7.81;72.73;101468.78;4998217;28;20023;-21
2021/04/21 04:17:20;;;;;;;41.45;28.35;;;;;;;7.87;72.82;101470.50;4960659;28;20026;-21
2021/04/21 04:19:46;;;;;;;41.50;27.20;;;;;;;7.88;72.70;101466.97;4986475;28;20026;-21
2021/04/21 04:22:12;;;;;;;40.05;27.23;;;;;;;7.90;72.76;101469.63;4994460;28;20530;-21
2021/04/21 04:24:45;;;;;;;40.00;27.33;;;;;;;7.84;72.75;101463.47;4989577;28;20060;-20
2021/04/21 04:27:20;;;;;;;39.40;27.30;;;;;;;7.90;72.81;101469.63;4986314;28;20030;-21
2021/04/21 04:29:45;;;;;;;41.42;27.25;;;;;;;7.86;72.79;101468.75;4986976;28;20041;-21
2021/04/21 04:32:18;;;;;;;37.28;26.10;;;;;;;7.86;72.86;101472.28;4993801;28;20048;-21
2021/04/21 04:34:45;;;;;;;39.58;27.60;;;;;;;7.79;72.90;101467.00;4988744;28;20233;-20
2021/04/21 04:37:14;;;;;;;37.55;26.17;;;;;;;7.70;73.17;101470.56;4978579;28;20140;-21
2021/04/21 04:39:40;;;;;;;39.42;27.10;;;;;;;7.73;73.21;101473.19;4993408;28;20053;-21
2021/04/21 04:42:06;;;;;;;34.85;24.77;;;;;;;7.75;73.39;101480.25;4990933;28;20144;-21
2021/04/21 04:44:43;;;;;;;36.15;24.55;;;;;;;7.78;73.64;101471.41;4981741;28;20054;-21
2021/04/21 04:47:17;;;;;;;36.67;25.60;;;;;;;7.81;73.35;101470.53;4983610;28;20170;-20
2021/04/21 04:50:06;;;;;;;35.63;21.75;;;;;;;8.12;73.31;101478.41;4986038;28;20030;-21
2021/04/21 04:52:39;;;;;;;36.70;24.98;;;;;;;8.00;72.94;101477.53;4986707;28;20030;-19
2021/04/21 04:55:06;;;;;;;39.72;25.63;;;;;;;7.99;73.00;101483.72;4985146;28;20022;-21
2021/04/21 04:57:31;;;;;;;38.30;25.42;;;;;;;7.97;73.11;101485.50;4983879;28;20027;-20
2021/04/21 05:00:03;;;;;;;36.38;25.15;;;;;;;8.00;72.89;101484.59;4987871;28;20563;-20
2021/04/21 05:02:29;;;;;;;40.75;26.83;;;;;;;7.99;73.10;101488.16;4989193;28;20393;-21
2021/04/21 05:05:04;;;;;;;41.35;27.38;;;;;;;8.00;73.04;101488.13;5000913;28;20104;-21
2021/04/21 05:07:33;;;;;;;46.45;28.90;;;;;;;8.06;73.21;101486.34;4978885;28;20033;-21
2021/04/21 05:10:02;;;;;;;39.40;25.52;;;;;;;8.07;73.09;101496.06;4992557;28;20325;-21
2021/04/21 05:12:28;;;;;;;39.30;26.75;;;;;;;8.14;73.07;101491.63;4994807;28;20555;-19
2021/04/21 05:14:53;;;;;;;40.25;27.15;;;;;;;8.16;73.19;101492.50;4984542;28;20025;-20
2021/04/21 05:17:18;;;;;;;41.95;27.15;;;;;;;8.40;73.03;101498.63;4985259;28;20479;-20
2021/04/21 05:20:08;;;;;;;40.10;23.97;;;;;;;8.47;72.72;101501.25;4984956;28;20499;-19
2021/04/21 05:22:55;;;;;;;36.92;25.08;;;;;;;8.67;72.27;101499.41;4984185;28;20602;-21
2021/04/21 05:25:49;;;;;;;38.03;23.48;;;;;;;8.68;72.04;101502.03;4979113;28;20034;-20
2021/04/21 05:28:38;;;;;;;39.75;24.30;;;;;;;8.75;72.02;101505.56;4985220;28;20030;-20
2021/04/21 05:31:56;;;;;;;38.22;23.73;;;;;;;8.76;71.76;101503.75;4983664;28;20068;-21
2021/04/21 05:35:03;;;;;;;38.90;23.30;;;;;;;8.76;71.89;101514.38;4969005;28;20089;-20
2021/04/21 05:37:52;;;;;;;41.40;25.75;;;;;;;8.78;71.75;101513.50;4973633;28;20163;-20
2021/04/21 05:40:23;;;;;;;38.53;24.73;;;;;;;8.82;71.70;101506.41;4985475;28;20112;-20
2021/04/21 05:43:07;;;;;;;37.53;25.23;;;;;;;8.88;71.71;101514.28;4992402;28;20037;-20
2021/04/21 05:45:41;;;;;;;40.42;27.52;;;;;;;8.85;71.72;101509.03;4986998;28;20543;-19
2021/04/21 05:48:43;;;;;;;43.47;29.48;;;;;;;8.66;71.77;101514.41;4987052;28;20026;-21
2021/04/21 05:51:42;;;;;;;41.15;28.88;;;;;;;8.66;72.10;101509.13;4982566;28;20475;-20
2021/04/21 05:54:49;;;;;;;39.33;27.55;;;;;;;8.67;71.95;101510.91;4998960;28;20058;-18
2021/04/21 05:57:48;;;;;;;41.20;28.45;;;;;;;8.66;72.18;101518.88;4977483;28;20117;-19
2021/04/21 06:00:46;;;;;;;38.88;27.75;;;;;;;8.66;72.38;101519.72;4985125;28;20405;-20
2021/04/21 06:03:11;;;;;;;39.38;28.23;;;;;;;8.68;72.37;101520.59;4984551;28;20476;-20
2021/04/21 06:05:37;;;;;;;44.15;29.73;;;;;;;8.72;72.61;101518.81;4985284;28;20041;-18
2021/04/21 06:08:12;;;;;;;44.75;30.50;;;;;;;8.73;72.60;101522.34;4980551;28;20707;-20
2021/04/21 06:10:37;;;;;;;42.22;29.92;;;;;;;8.77;72.57;101521.47;4982267;28;20036;-20
2021/04/21 06:13:03;;;;;;;43.08;31.05;;;;;;;8.77;72.48;101522.31;4980305;28;20460;-21
2021/04/21 06:15:28;;;;;;;44.13;29.20;;;;;;;8.89;72.73;101526.69;4979304;28;20087;-20
2021/04/21 06:17:55;;;;;;;41.88;28.23;;;;;;;9.08;72.46;101521.28;4985381;28;20038;-21
2021/04/21 06:20:50;;;;;;;40.85;28.25;;;;;;;9.24;72.23;101531.78;4990944;28;20038;-19
2021/04/21 06:23:16;;;;;;;47.15;29.77;;;;;;;9.26;71.91;101525.56;4979002;28;20049;-18
2021/04/21 06:25:43;;;;;;;41.88;28.42;;;;;;;9.29;71.75;101524.66;4983486;28;20056;-19
2021/04/21 06:28:08;;;;;;;40.63;29.48;;;;;;;9.38;71.77;101529.91;4985611;28;20172;-19
2021/04/21 06:30:34;;;;;;;42.85;30.08;;;;;;;9.43;71.45;101532.53;4982623;28;20480;-21
2021/04/21 06:33:03;;;;;;;45.13;31.52;;;;;;;9.37;71.49;101533.47;4986576;28;20340;-18
2021/04/21 06:35:29;;;;;;;46.72;33.63;;;;;;;9.24;71.42;101535.31;4989960;28;20040;-19
2021/04/21 06:37:54;;;;;;;41.83;32.50;;;;;;;9.18;71.41;101543.31;4983568;28;20030;-19
2021/04/21 06:40:24;;;;;;;45.40;32.38;;;;;;;9.21;71.98;101537.13;4981848;28;20267;-20
2021/04/21 06:42:49;;;;;;;44.75;33.55;;;;;;;9.23;71.88;101543.31;4995697;28;20045;-20
2021/04/21 06:45:24;;;;;;;45.35;33.28;;;;;;;9.24;71.91;101537.09;4994905;28;20030;-20
2021/04/21 06:47:49;;;;;;;53.13;39.17;;;;;;;9.23;71.72;101544.19;4996852;28;20278;-20
2021/04/21 06:50:16;;;;;;;48.90;37.60;;;;;;;9.28;72.17;101544.16;4975061;28;20039;-20
2021/04/21 06:52:43;;;;;;;45.90;33.83;;;;;;;9.27;72.00;101543.25;4980665;28;20303;-20
2021/04/21 06:55:12;;;;;;;47.00;34.78;;;;;;;9.25;72.06;101544.19;4984260;28;20110;-18
2021/04/21 06:57:38;;;;;;;44.67;34.70;;;;;;;9.32;71.93;101546.75;4971409;28;20416;-19
2021/04/21 07:00:16;;;;;;;48.05;34.00;;;;;;;9.37;72.02;101549.38;4983630;28;20038;-20
2021/04/21 07:02:43;;;;;;;45.00;32.90;;;;;;;9.45;71.94;101549.34;4993508;28;20117;-20
2021/04/21 07:05:30;;;;;;;47.53;35.65;;;;;;;9.54;71.67;101551.03;4994074;28;20037;-20
2021/04/21 07:08:08;;;;;;;46.13;34.08;;;;;;;9.65;71.44;101548.28;4979917;28;20018;-20
2021/04/21 07:10:39;;;;;;;46.10;33.22;;;;;;;9.66;71.23;101548.28;4986612;28;20398;-20
2021/04/21 07:13:06;;;;;;;44.45;32.60;;;;;;;9.66;71.27;101539.41;4984003;28;20451;-19
2021/04/21 07:15:32;;;;;;;47.05;33.25;;;;;;;10.02;71.58;101547.06;4992478;28;20061;-19
2021/04/21 07:17:58;;;;;;;45.88;32.92;;;;;;;9.98;70.14;101543.56;4984378;28;20472;-20
2021/04/21 07:20:23;;;;;;;52.03;40.38;;;;;;;10.08;70.28;101546.13;4996815;28;20048;-19
2021/04/21 07:22:48;;;;;;;49.08;34.30;;;;;;;10.70;69.20;101541.88;4999731;28;20026;-19
2021/04/21 07:25:15;;;;;;;43.53;31.33;;;;;;;10.32;68.23;101546.75;4977394;28;20046;-20
2021/04/21 07:27:42;;;;;;;42.78;32.05;;;;;;;10.07;68.92;101542.56;4986019;28;20380;-20
2021/04/21 07:30:07;;;;;;;43.50;32.53;;;;;;;10.20;69.15;101545.09;4977777;28;20046;-20
2021/04/21 07:32:41;;;;;;;43.83;32.25;;;;;;;10.28;69.16;101537.94;4986181;28;20036;-19
2021/04/21 07:35:08;;;;;;;43.10;32.30;;;;;;;10.30;68.91;101545.88;4988010;28;20500;-20
2021/04/21 07:37:34;;;;;;;39.63;28.95;;;;;;;10.20;68.71;101553.06;4991613;28;20037;-20
2021/04/21 07:39:59;;;;;;;53.75;30.52;;;;;;;10.23;68.55;101550.38;4983211;28;20105;-20
2021/04/21 07:42:25;;;;;;;37.45;27.52;;;;;;;10.23;68.23;101550.38;4976620;28;20027;-20
2021/04/21 07:44:51;;;;;;;37.25;26.73;;;;;;;10.26;67.80;101551.22;4991367;28;20099;-20
2021/04/21 07:47:20;;;;;;;34.83;27.65;;;;;;;10.29;67.69;101555.63;4995465;28;20528;-21
2021/04/21 07:49:52;;;;;;;35.45;25.58;;;;;;;10.75;67.42;101556.00;4987756;28;20124;-20
2021/04/21 07:52:34;;;;;;;35.63;25.83;;;;;;;11.19;66.74;101569.59;4988033;28;20376;-20
2021/04/21 07:55:16;;;;;;;32.28;23.63;;;;;;;11.15;65.55;101561.69;4987618;28;20413;-20
2021/04/21 07:57:46;;;;;;;35.53;26.48;;;;;;;10.91;65.81;101569.97;4992142;28;20037;-19
2021/04/21 08:00:26;;;;;;;30.67;22.58;;;;;;;10.83;65.59;101572.78;4981634;28;20045;-20
2021/04/21 08:02:51;;;;;;;35.00;24.58;;;;;;;10.78;65.67;101545.31;4981913;28;20511;-20
2021/04/21 08:05:17;;;;;;;36.35;25.42;;;;;;;11.01;65.57;101570.75;4982425;28;20026;-20
2021/04/21 08:07:43;;;;;;;33.13;25.60;;;;;;;11.12;65.63;101575.03;4992850;28;20037;-20
2021/04/21 08:10:25;;;;;;;34.00;24.77;;;;;;;11.14;65.63;101568.78;4986966;28;20029;-20
2021/04/21 08:12:51;;;;;;;35.13;24.17;;;;;;;11.22;65.00;101585.53;4983534;28;20134;-20
2021/04/21 08:15:17;;;;;;;31.75;23.65;;;;;;;11.32;64.79;101578.28;4999357;28;20424;-20
2021/04/21 08:17:55;;;;;;;35.80;22.88;;;;;;;11.37;64.53;101572.88;4984116;28;20023;-20
2021/04/21 08:20:24;;;;;;;29.65;20.85;;;;;;;11.38;63.70;101579.97;4978603;28;20026;-21
2021/04/21 08:22:54;;;;;;;32.40;21.13;;;;;;;11.46;63.62;101578.06;4977662;28;20023;-20
2021/04/21 08:25:19;;;;;;;29.13;20.52;;;;;;;11.49;62.90;101577.16;4986134;28;20467;-20
2021/04/21 08:27:44;;;;;;;29.42;18.77;;;;;;;11.57;62.28;101577.88;4988774;28;20038;-22
2021/04/21 08:30:10;;;;;;;30.38;19.83;;;;;;;11.60;61.66;101590.28;4980358;28;20026;-20
2021/04/21 08:32:36;;;;;;;32.15;22.70;;;;;;;11.54;61.63;101588.59;4977018;28;20038;-20
2021/04/21 08:35:01;;;;;;;35.88;25.58;;;;;;;11.65;61.75;101583.09;4980372;28;20038;-20
2021/04/21 08:37:26;;;;;;;38.15;25.83;;;;;;;11.72;62.29;101588.34;4982812;28;20423;-19
2021/04/21 08:39:52;;;;;;;35.92;24.83;;;;;;;11.76;62.17;101585.59;4987566;28;20030;-21
2021/04/21 08:42:17;;;;;;;42.47;25.80;;;;;;;11.78;62.20;101583.78;4982491;28;20169;-20
2021/04/21 08:44:43;;;;;;;34.65;22.55;;;;;;;11.81;61.61;101588.19;4977858;28;20464;-19
2021/04/21 08:47:13;;;;;;;34.22;25.27;;;;;;;11.87;62.02;101593.41;4985820;28;20045;-20
2021/04/21 08:49:39;;;;;;;33.47;21.95;;;;;;;11.95;61.77;101587.94;5002265;28;20030;-21
2021/04/21 08:52:05;;;;;;;32.35;20.77;;;;;;;11.96;61.47;101587.00;4992604;28;20026;-20
2021/04/21 08:54:31;;;;;;;29.85;19.92;;;;;;;12.01;60.77;101584.28;4989127;28;20212;-21
2021/04/21 08:56:57;;;;;;;31.70;21.50;;;;;;;12.11;60.74;101587.69;4982733;28;20037;-19
2021/04/21 08:59:22;;;;;;;28.42;19.90;;;;;;;12.17;60.31;101593.81;4995496;28;20420;-19
2021/04/21 09:01:48;;;;;;;27.85;18.70;;;;;;;12.21;60.11;101591.94;4980907;28;20038;-20
2021/04/21 09:04:14;;;;;;;26.73;18.02;;;;;;;12.23;59.80;101590.16;4999565;28;20070;-20
2021/04/21 09:06:40;;;;;;;23.10;15.68;;;;;;;12.35;59.58;101594.34;4974277;28;20105;-20
2021/04/21 09:09:05;;;;;;;26.70;17.58;;;;;;;12.45;59.49;101595.06;4992304;28;20461;-20
2021/04/21 09:11:32;;;;;;;28.48;14.98;;;;;;;12.23;59.26;101576.81;4989045;28;20026;-20
2021/04/21 09:13:58;;;;;;;20.98;13.30;;;;;;;12.40;58.42;101604.94;4983869;28;20041;-20
2021/04/21 09:16:23;;;;;;;22.55;13.40;;;;;;;12.44;57.79;101601.28;4986891;28;20030;-20
2021/04/21 09:18:48;;;;;;;8.25;3.88;;;;;;;13.19;58.47;101604.22;4990899;28;20045;-20
2021/04/21 09:21:19;;;;;;;20.52;12.50;;;;;;;13.15;56.79;101600.72;4984856;28;20031;-20
2021/04/21 09:23:46;;;;;;;20.85;14.40;;;;;;;13.04;56.61;101597.41;4975659;28;20036;-21
2021/04/21 09:26:22;;;;;;;16.08;9.93;;;;;;;13.65;56.57;101598.72;4984130;28;20456;-20
2021/04/21 09:28:48;;;;;;;12.40;7.78;;;;;;;13.80;56.10;101613.50;4984866;28;20040;-20
2021/04/21 09:31:21;;;;;;;19.00;11.50;;;;;;;13.42;54.89;101611.69;4984871;28;20034;-20
2021/04/21 09:33:47;;;;;;;11.82;5.63;;;;;;;13.45;55.74;101613.41;4978186;28;20129;-20
2021/04/21 09:36:12;;;;;;;20.40;12.80;;;;;;;13.31;55.05;101608.38;4984429;28;20460;-20
2021/04/21 09:38:37;;;;;;;21.02;11.73;;;;;;;14.23;54.81;101605.25;4982243;28;20030;-20
2021/04/21 09:41:18;;;;;;;19.98;14.52;;;;;;;13.44;54.52;101623.22;4984542;28;20031;-20
2021/04/21 09:43:44;;;;;;;20.55;13.73;;;;;;;13.21;55.03;101613.94;4990888;28;20352;-19
2021/04/21 09:46:17;;;;;;;19.90;14.43;;;;;;;13.05;55.02;101610.72;4993214;28;20052;-20
2021/04/21 09:48:45;;;;;;;21.92;13.43;;;;;;;13.20;55.11;101617.53;4995289;28;20022;-20
2021/04/21 09:51:15;;;;;;;20.25;13.27;;;;;;;13.09;55.03;101616.88;4983828;28;20074;-20
2021/04/21 09:53:42;;;;;;;20.48;13.95;;;;;;;13.17;55.36;101624.72;4985644;28;20274;-20
2021/04/21 09:56:17;;;;;;;19.63;13.93;;;;;;;13.19;55.77;101618.47;4981643;28;20194;-19
2021/04/21 09:58:44;;;;;;;24.23;13.80;;;;;;;13.15;55.77;101624.78;4987022;28;20460;-20
2021/04/21 10:01:38;;;;;;;21.98;14.23;;;;;;;13.29;55.78;101613.75;4978098;28;20025;-20
2021/04/21 10:04:14;;;;;;;20.83;14.88;;;;;;;13.42;55.88;101613.47;4981434;28;20050;-20
2021/04/21 10:06:47;;;;;;;22.38;16.00;;;;;;;13.34;55.63;101617.19;4979666;28;20046;-20
2021/04/21 10:09:32;;;;;;;21.17;13.80;;;;;;;13.44;55.57;101615.22;5006745;28;20468;-20
2021/04/21 10:12:18;;;;;;;19.05;12.20;;;;;;;13.39;55.46;101614.44;4985231;28;20361;-20
2021/04/21 10:15:22;;;;;;;20.23;13.10;;;;;;;13.44;55.40;101617.00;4983137;28;20040;-20
2021/04/21 10:17:48;;;;;;;23.83;16.15;;;;;;;13.39;55.41;101613.56;4946419;28;20027;-21
2021/04/21 10:20:15;;;;;;;19.33;14.45;;;;;;;13.45;54.93;101621.44;4973148;28;20047;-20
2021/04/21 10:22:41;;;;;;;22.92;14.60;;;;;;;13.43;54.85;101620.59;4985917;28;20150;-20
2021/04/21 10:25:07;;;;;;;21.17;14.88;;;;;;;13.57;54.86;101618.50;4995000;28;20034;-20
2021/04/21 10:27:33;;;;;;;20.55;12.63;;;;;;;13.64;55.15;101612.97;4979490;28;20356;-20
2021/04/21 10:29:58;;;;;;;19.17;13.13;;;;;;;13.66;54.85;101612.03;4970179;28;20014;-21
2021/04/21 10:32:23;;;;;;;19.15;12.15;;;;;;;13.66;54.61;101617.38;4973147;28;20523;-20
2021/04/21 10:34:49;;;;;;;19.33;12.77;;;;;;;13.69;54.55;101613.78;5003321;28;20403;-20
2021/04/21 10:37:15;;;;;;;20.10;13.13;;;;;;;13.70;54.70;101624.44;4978160;28;20173;-21
2021/04/21 10:39:42;;;;;;;20.98;13.00;;;;;;;13.80;54.85;101619.72;4983334;28;20037;-21
2021/04/21 10:42:09;;;;;;;13.13;8.05;;;;;;;14.34;54.28;101618.38;4998977;28;20041;-20
2021/04/21 10:44:34;;;;;;;16.77;10.98;;;;;;;14.93;52.97;101621.22;4982477;28;20196;-21
2021/04/21 10:47:02;;;;;;;19.65;14.18;;;;;;;14.42;52.77;101617.22;4980106;28;20541;-22
2021/04/21 10:49:58;;;;;;;23.08;13.32;;;;;;;14.17;52.90;101627.72;4982883;28;20018;-21
2021/04/21 10:52:33;;;;;;;19.33;11.25;;;;;;;14.58;53.42;101619.47;4986791;28;20117;-20
2021/04/21 10:54:58;;;;;;;16.63;11.52;;;;;;;14.64;52.32;101621.09;4971870;28;20154;-22
2021/04/21 10:57:23;;;;;;;15.90;11.00;;;;;;;14.62;52.69;101622.94;4974997;28;20034;-21
2021/04/21 11:00:15;;;;;;;17.75;10.93;;;;;;;14.85;52.59;101625.00;4986882;28;20284;-21
2021/04/21 11:02:42;;;;;;;17.33;10.02;;;;;;;15.18;50.94;101628.50;4998321;28;20022;-22
2021/04/21 11:05:12;;;;;;;18.50;12.05;;;;;;;14.77;50.24;101618.94;4986255;28;20844;-21
2021/04/21 11:07:37;;;;;;;17.10;11.60;;;;;;;14.79;50.92;101620.66;4985359;28;20542;-21
2021/04/21 11:10:07;;;;;;;20.60;14.75;;;;;;;14.24;50.76;101626.66;4989362;28;20322;-21
2021/04/21 11:12:51;;;;;;;18.98;14.70;;;;;;;14.47;50.38;101622.44;4991555;28;20027;-21
2021/04/21 11:15:36;;;;;;;15.77;7.82;;;;;;;15.35;51.35;101626.16;4983154;28;20023;-20
2021/04/21 11:18:07;;;;;;;18.25;10.27;;;;;;;15.22;50.41;101628.34;4978649;28;20241;-22
2021/04/21 11:20:47;;;;;;;23.08;14.57;;;;;;;15.14;49.33;101625.91;4986499;28;20089;-21
2021/04/21 11:26:24;;;;;;;21.92;16.08;;;;;;;14.63;50.59;101633.59;4980538;28;20037;-20
2021/04/21 11:28:59;;;;;;;23.73;16.52;;;;;;;14.58;50.87;101627.50;4985428;28;20034;-21
2021/04/21 11:34:21;;;;;;;;;;;;;;;14.54;51.94;101625.81;4982658;28;20034;-20
2021/04/21 11:36:56;;;;;;;21.75;14.63;;;;;;;14.51;52.26;101626.81;4972036;28;19914;-20
2021/04/21 11:39:39;;;;;;;21.08;15.48;;;;;;;14.37;51.66;101619.16;4973070;28;20081;-21
2021/04/21 11:42:37;;;;;;;21.73;14.50;;;;;;;14.48;51.89;101626.91;4991789;28;20377;-21
2021/04/21 11:45:06;;;;;;;21.80;14.95;;;;;;;14.40;52.15;101620.88;4989463;28;20022;-21